Portada
METAR-TAF:

METAR-TAF

Aeroports :

Aurenja, França

latitud: 44-08N, longitud: 004-50E, altitud: 60 m

Observació

L'informe es va fer fa 6 hores i 39 minuts, a les 05:00 UTC
Vent 12 kt del Nord
Temperatura 23°C
Humitat 65%
Pressió 1016 hPa
Visibilitat 10 km o més
sense núvols per sota de 1500 mi sense presència de cumulonimbus.

METAR: LFMO 210500Z AUTO 36012KT CAVOK 23/16 Q1016 NOSIG

Hora: 13:39 (11:39 UTC)

Pronòstic

L'informe es va fer fa 9 hores i 39 minuts, a les 02:00 UTC
Pronòstic vàlid del 21 a les 03 UTC al 22 a les 03 UTC
Vent 10 kt del Nord/Nord-Oest
Visibilitat 10 km o més
sense núvols per sota de 1500 mi sense presència de cumulonimbus.

TAF: LFMO 210200Z 2103/2203 34010KT CAVOK

Observacions i pronòstics meteorològics de més de 4000 aeroports (METAR i TAF).

Les estacions disponibles són els punts grocs i vermells al mapa.

Posi el ratolí al punt desitjat per veure el nom de l'estació.

Feu clic per veure les observacions i els pronòstics meteorològics.

Per canviar el mapa: feu clic els botons verds amb una creu de color negre per apropar; al botó verd amb un guió per allunyar la imatge; o en les fletxes verdes per a mapes adjacents.


METAR-TAF: